createdAt,value
2022-11-11T00:02:39.791Z,94.21
2022-11-11T00:07:43.442Z,94.33
2022-11-11T00:12:46.398Z,94.73
2022-11-11T00:18:09.219Z,94.62
2022-11-11T00:23:40.749Z,94.77
2022-11-11T00:28:43.520Z,94.50
2022-11-11T00:33:46.478Z,94.83
2022-11-11T00:38:50.020Z,94.82
2022-11-11T00:43:52.956Z,94.39
2022-11-11T00:49:14.666Z,94.29
2022-11-11T00:54:17.593Z,94.20
2022-11-11T00:59:20.522Z,94.34
2022-11-11T01:04:24.287Z,94.10
2022-11-11T01:09:27.299Z,93.72
2022-11-11T01:14:30.964Z,94.10
2022-11-11T01:19:33.813Z,93.89
2022-11-11T01:24:38.733Z,94.29
2022-11-11T01:29:41.740Z,93.78
2022-11-11T01:34:44.946Z,93.85
2022-11-11T01:39:47.912Z,94.09
2022-11-11T01:44:51.507Z,94.35
2022-11-11T01:49:57.811Z,94.19
2022-11-11T01:55:16.003Z,94.20
2022-11-11T02:00:19.629Z,94.49
2022-11-11T02:05:42.150Z,94.36
2022-11-11T02:10:45.375Z,94.12
2022-11-11T02:15:48.225Z,94.17
2022-11-11T02:20:51.012Z,94.32
2022-11-11T02:25:53.948Z,94.34
2022-11-11T02:30:56.860Z,94.18
2022-11-11T02:35:59.852Z,94.28
2022-11-11T02:41:21.406Z,94.29
2022-11-11T02:46:24.401Z,94.06
2022-11-11T02:51:27.184Z,93.65
2022-11-11T02:56:48.866Z,93.47
2022-11-11T03:01:51.968Z,92.97
2022-11-11T03:06:55.129Z,92.68
2022-11-11T03:11:58.120Z,92.47
2022-11-11T03:17:19.550Z,92.48
2022-11-11T03:27:46.586Z,92.04
2022-11-11T03:32:49.375Z,92.09
2022-11-11T03:38:10.955Z,92.16
2022-11-11T03:43:16.261Z,92.21
2022-11-11T03:48:19.178Z,92.22
2022-11-11T03:53:22.783Z,92.53
2022-11-11T03:58:26.286Z,92.59
2022-11-11T04:03:47.855Z,92.71
2022-11-11T04:09:09.467Z,92.93
2022-11-11T04:14:32.531Z,92.73
2022-11-11T04:19:55.728Z,93.07
2022-11-11T04:25:17.226Z,92.87
2022-11-11T04:30:20.044Z,93.42
2022-11-11T04:35:24.157Z,93.53
2022-11-11T04:40:45.795Z,94.08
2022-11-11T04:45:48.608Z,93.91
2022-11-11T04:50:51.530Z,93.90
2022-11-11T04:56:13.039Z,93.98
2022-11-11T05:01:35.853Z,93.93
2022-11-11T05:06:59.612Z,94.08
2022-11-11T05:12:03.110Z,93.98
2022-11-11T05:17:25.127Z,94.13
2022-11-11T05:22:40.931Z,94.02
2022-11-11T05:27:43.871Z,94.17
2022-11-11T05:32:46.661Z,94.12
2022-11-11T05:38:09.382Z,94.34
2022-11-11T05:43:12.256Z,94.40
2022-11-11T05:48:15.385Z,94.40
2022-11-11T05:53:24.680Z,94.66
2022-11-11T05:58:27.875Z,94.34
2022-11-11T06:03:30.705Z,94.54
2022-11-11T06:08:33.557Z,94.54
2022-11-11T06:13:36.480Z,94.17
2022-11-11T06:18:39.290Z,93.94
2022-11-11T06:23:44.532Z,93.91
2022-11-11T06:28:57.725Z,93.96
2022-11-11T06:34:00.862Z,94.01
2022-11-11T06:39:03.624Z,94.00
2022-11-11T06:44:06.438Z,93.91
2022-11-11T06:49:09.289Z,93.64
2022-11-11T06:54:12.187Z,93.82
2022-11-11T06:59:15.204Z,93.77
2022-11-11T07:04:18.034Z,93.44
2022-11-11T07:09:20.830Z,93.19
2022-11-11T07:14:23.656Z,93.31
2022-11-11T07:19:26.507Z,93.38
2022-11-11T07:24:29.793Z,92.98
2022-11-11T07:29:32.554Z,92.99
2022-11-11T07:34:35.583Z,92.62
2022-11-11T07:39:39.743Z,92.75
2022-11-11T07:44:49.192Z,92.84
2022-11-11T07:49:52.553Z,92.64
2022-11-11T07:54:55.449Z,92.59
2022-11-11T07:59:58.316Z,92.46
2022-11-11T08:05:01.196Z,92.08
2022-11-11T08:10:04.672Z,91.57
2022-11-11T08:15:09.009Z,91.37
2022-11-11T08:20:12.444Z,90.85
2022-11-11T08:25:15.527Z,91.05
2022-11-11T08:30:18.522Z,91.06
2022-11-11T08:35:21.292Z,91.01
2022-11-11T08:40:24.791Z,90.02
2022-11-11T08:45:29.407Z,89.28
2022-11-11T08:50:33.624Z,88.98
2022-11-11T08:55:36.847Z,88.38
2022-11-11T09:00:39.875Z,88.18
2022-11-11T09:05:42.784Z,88.22
2022-11-11T09:10:45.770Z,88.21
2022-11-11T09:15:48.627Z,87.35
2022-11-11T09:20:52.051Z,86.83
2022-11-11T09:25:55.077Z,86.50
2022-11-11T09:31:22.778Z,86.89
2022-11-11T09:36:24.069Z,86.01
2022-11-11T09:42:14.723Z,85.62
2022-11-11T09:47:36.027Z,85.44
2022-11-11T09:52:56.288Z,85.51
2022-11-11T09:58:04.542Z,85.26
2022-11-11T10:03:10.311Z,84.79
2022-11-11T10:08:29.895Z,84.76
2022-11-11T10:13:37.915Z,84.74
2022-11-11T10:19:17.100Z,84.07
2022-11-11T10:24:30.253Z,83.90
2022-11-11T10:29:44.595Z,83.59
2022-11-11T10:34:47.541Z,83.16
2022-11-11T10:40:16.353Z,82.96
2022-11-11T10:45:32.178Z,82.10
2022-11-11T10:51:02.103Z,82.61
2022-11-11T10:56:11.815Z,82.42
2022-11-11T11:01:20.435Z,81.78
2022-11-11T11:06:31.795Z,81.37
2022-11-11T11:11:40.333Z,81.17
2022-11-11T11:16:51.236Z,80.20
2022-11-11T11:21:59.624Z,79.69
2022-11-11T11:27:08.299Z,79.83
2022-11-11T11:32:19.609Z,79.94
2022-11-11T11:37:24.782Z,79.86
2022-11-11T11:42:37.545Z,79.76
2022-11-11T11:48:09.339Z,79.79
2022-11-11T11:54:01.264Z,80.02
2022-11-11T11:59:22.916Z,79.72
2022-11-11T12:04:48.279Z,79.68
2022-11-11T12:10:33.937Z,78.75
2022-11-11T12:16:07.679Z,79.30
2022-11-11T12:21:18.771Z,79.17
2022-11-11T12:26:44.442Z,79.14
2022-11-11T12:32:02.546Z,79.15
2022-11-11T12:37:24.300Z,78.70
2022-11-11T12:42:37.181Z,78.42
2022-11-11T12:48:39.115Z,78.86
2022-11-11T12:53:56.015Z,78.55
2022-11-11T12:59:36.015Z,78.43
2022-11-11T13:04:57.503Z,78.81
2022-11-11T13:10:45.458Z,78.87
2022-11-11T13:15:51.627Z,78.57
2022-11-11T13:21:00.157Z,78.70
2022-11-11T13:26:05.204Z,78.75
2022-11-11T13:31:20.370Z,78.04
2022-11-11T13:36:26.775Z,75.78
2022-11-11T13:41:35.859Z,76.01
2022-11-11T13:46:50.246Z,76.44
2022-11-11T13:52:22.667Z,76.77
2022-11-11T13:57:32.259Z,77.12
2022-11-11T14:02:35.705Z,77.00
2022-11-11T14:07:44.793Z,76.88
2022-11-11T14:12:51.542Z,75.89
2022-11-11T14:17:54.678Z,76.36
2022-11-11T14:23:18.758Z,76.96
2022-11-11T14:28:27.751Z,76.37
2022-11-11T14:33:49.100Z,76.24
2022-11-11T14:39:22.876Z,76.70
2022-11-11T14:44:25.729Z,77.04
2022-11-11T14:49:57.911Z,77.14
2022-11-11T14:55:07.901Z,77.39
2022-11-11T15:00:21.181Z,77.69
2022-11-11T15:05:49.830Z,78.03
2022-11-11T15:11:33.476Z,78.04
2022-11-11T15:17:17.337Z,78.56
2022-11-11T15:22:36.987Z,79.08
2022-11-11T15:28:02.452Z,79.27
2022-11-11T15:33:41.807Z,79.65
2022-11-11T15:38:44.748Z,79.76
2022-11-11T15:43:48.625Z,80.09
2022-11-11T15:48:53.150Z,80.18
2022-11-11T15:54:32.072Z,80.70
2022-11-11T15:59:42.749Z,81.03
2022-11-11T16:05:05.899Z,81.33
2022-11-11T16:10:38.337Z,81.61
2022-11-11T16:15:47.167Z,82.05
2022-11-11T16:21:11.724Z,82.59
2022-11-11T16:26:15.668Z,82.21
2022-11-11T16:31:45.259Z,82.76
2022-11-11T16:37:02.605Z,82.79
2022-11-11T16:42:22.705Z,82.43
2022-11-11T16:47:32.900Z,82.52
2022-11-11T16:52:57.234Z,82.57
2022-11-11T16:58:20.621Z,82.92
2022-11-11T17:03:28.311Z,82.81
2022-11-11T17:08:46.030Z,82.64
2022-11-11T17:19:09.148Z,82.93
2022-11-11T17:24:33.346Z,83.34
2022-11-11T17:29:41.271Z,83.12
2022-11-11T17:34:45.001Z,83.25
2022-11-11T17:39:51.028Z,83.00
2022-11-11T17:44:54.082Z,82.85
2022-11-11T17:49:57.590Z,82.86
2022-11-11T17:55:00.613Z,83.31
2022-11-11T18:00:04.331Z,83.07
2022-11-11T18:05:07.627Z,83.11
2022-11-11T18:10:10.787Z,83.30
2022-11-11T18:15:13.603Z,83.37
2022-11-11T18:20:23.563Z,83.13
2022-11-11T18:25:26.417Z,83.55
2022-11-11T18:30:29.851Z,83.88
2022-11-11T18:35:33.698Z,83.79
2022-11-11T18:40:38.958Z,84.20
2022-11-11T18:45:41.886Z,84.58
2022-11-11T18:50:44.815Z,84.95
2022-11-11T18:55:52.770Z,85.27
2022-11-11T19:01:15.428Z,85.22
2022-11-11T19:06:20.645Z,85.46
2022-11-11T19:11:24.222Z,85.45
2022-11-11T19:16:27.225Z,85.80
2022-11-11T19:21:33.347Z,85.90
2022-11-11T19:26:36.342Z,86.27
2022-11-11T19:31:39.291Z,86.83
2022-11-11T19:36:42.374Z,87.04
2022-11-11T19:41:45.286Z,87.74
2022-11-11T19:46:49.684Z,87.94
2022-11-11T19:51:57.088Z,88.48
2022-11-11T19:57:01.119Z,88.95
2022-11-11T20:02:04.064Z,89.08
2022-11-11T20:07:09.337Z,89.55
2022-11-11T20:12:12.341Z,89.70
2022-11-11T20:17:18.822Z,89.22
2022-11-11T20:22:27.228Z,89.90
2022-11-11T20:27:30.379Z,89.88
2022-11-11T20:32:33.156Z,89.80
2022-11-11T20:37:38.980Z,89.91
2022-11-11T20:42:41.953Z,89.69
2022-11-11T20:47:46.887Z,89.56
2022-11-11T20:52:50.987Z,89.68
2022-11-11T20:57:53.972Z,89.35
2022-11-11T21:02:57.462Z,89.09
2022-11-11T21:08:01.143Z,88.76
2022-11-11T21:13:04.393Z,88.85
2022-11-11T21:18:27.578Z,88.56
2022-11-11T21:23:32.300Z,88.67
2022-11-11T21:28:37.187Z,88.85
2022-11-11T21:33:40.023Z,88.56
2022-11-11T21:38:43.846Z,88.67
2022-11-11T21:43:47.201Z,88.62
2022-11-11T21:48:50.254Z,88.68
2022-11-11T21:54:02.506Z,88.43
2022-11-11T21:59:07.073Z,88.79
2022-11-11T22:04:13.559Z,89.38
2022-11-11T22:09:16.807Z,89.39
2022-11-11T22:14:20.173Z,89.34
2022-11-11T22:19:23.184Z,89.17
2022-11-11T22:24:26.014Z,89.27
2022-11-11T22:29:28.848Z,89.24
2022-11-11T22:34:31.619Z,89.25
2022-11-11T22:39:34.537Z,89.30
2022-11-11T22:44:37.409Z,89.65
2022-11-11T22:49:40.324Z,89.67
2022-11-11T22:54:43.158Z,89.72
2022-11-11T22:59:46.148Z,89.57
2022-11-11T23:04:49.120Z,89.53
2022-11-11T23:09:52.124Z,89.08
2022-11-11T23:14:56.777Z,89.19
2022-11-11T23:20:00.741Z,88.99
2022-11-11T23:25:03.913Z,89.22
2022-11-11T23:30:07.788Z,88.94
2022-11-11T23:35:10.695Z,88.96
2022-11-11T23:40:13.623Z,89.07
2022-11-11T23:45:16.453Z,89.11
2022-11-11T23:50:19.298Z,89.13
2022-11-11T23:55:22.153Z,88.86
